logo
Search for airport 
image banner adimage banner adimage banner ad
image banner ad

HKOA - Kora

Located in , Kenya

ICAO - , IATA -

Data provided by Airmate  

General information

Coordinates: S0°8'10" E38°40'3"
Elevation is 1347 feet MSL.
 
View others Airports in Eastern Province

Operational data

Special qualification required
Current time UTC:
Current local time:
Weather at : - ( 0 km )
METAR: ZMCK 230330Z 31007MPS 9999 SCT033 SCT100 09/M03 Q1002 NOSIG
View NOTAMs / SUP AIP / TFR affecting this airport [VIEW]
Communications frequencies: [VIEW]

Runways:

RWY identifierQFULength (ft)Width (ft)SurfaceLDA (ft)
1700UNK
3500UNK

Airport contact information

Address: Kenya

Satellite view of HKOA